Брянск

Карта отелей и гостиниц, располагающихся рядом с аэропортом Брянск :

Брянск Брянская область 53° 12' 51.9012" N, 34° 10' 33.4812" E
Код аэродрома ИКАО
UUBP
Код аэродрома RU
УУБП
Координаты
N53.21442° E034.17597°
Превышение над уровнем моря
203
Основная полоса
16L/34R
Курс магнитный
162,5/342,5
Длина основной ВПП
2400
Ширина основной ВПП
42
Покрытие основной ВПП
Твёрдое
Освещение ВПП
Постоянное
Тип: 
Аэродром
Класс аэродрома: 
Международный
Принадлежность: 
ГА
Статус: 
Действующий
Сайт: 
aero32.ru
E-mail аэродрома: 
MAB@aero32.ru
Страна: 
Россия
Регион: 
Брянская область
Дополнительная информация: 
Оператор: ОАО «Международный аэропорт «Брянск». Нкр.=(500)м. ДПРМ: 325-"OD/NU", БПРМ: 668-"O/N".
Погода: 

Авиационная погода в Брянске

Регион: 
Погода METAR: 
UUBP 170300Z 05004MPS CAVOK 17/09 Q1008 R16/CLRD70 NOSIG RMK QFE738/0984
Время наблюдения
2021-05-17T03:00:00Z
Температура C
17.0
Точка росы
9.0
Направление ветра
50
Скорость ветра (узлы)
8
Метео видимость
6.21
Явления погоды
Условия полета
VFR
Аэропорт подробнее: 

Найти трансфер

С помощью этой формы Вы можете найти трансфер из аэропорта Брянск в город, аэропорт или вокзал:

Карта места

Javascript is required to view this map.

Погода в аэропортах:

Авиационная погода в Храброво

Регион: 
Погода METAR: 
UMKK 170300Z VRB01MPS 7000 0400E R24/0400D PRFG NSC 11/10 Q1003 R24/290095 NOSIG RMK QFE751/1002
Время наблюдения
2021-05-17T03:00:00Z
Температура C
11.0
Точка росы
10.0
Направление ветра
0
Скорость ветра (узлы)
2
Метео видимость
4.35
Явления погоды
PRFG
Условия полета
MVFR
Аэропорт подробнее: 

Авиационная погода в аэропорту Сокол

Регион: 
Погода METAR: 
UHMM 170300Z 10006MPS 9999 -SHRA BKN012 OVC016CB 03/02 Q1000 R10/290350 TEMPO 3100 -SHRASN RMK MT OBSC QFE736 R28/13007MPS
Время наблюдения
2021-05-17T03:00:00Z
Температура C
3.0
Точка росы
2.0
Направление ветра
100
Скорость ветра (узлы)
12
Метео видимость
6.21
Явления погоды
-SHRA
Условия полета
MVFR
Аэропорт подробнее: 

Авиационная погода в Ровно

Регион: 
Погода METAR: 
UKLR 161400Z 07005MPS 040V100 9999 TS FEW025CB SCT025 20/13 Q1006 NOSIG
Время наблюдения
2021-05-16T14:00:00Z
Температура C
20.0
Точка росы
13.0
Направление ветра
70
Скорость ветра (узлы)
10
Метео видимость
6.21
Явления погоды
TS
Условия полета
VFR
Аэропорт подробнее: 

Авиационная погода в Гродно

Регион: 
Погода METAR: 
UMMG 161400Z 13006G09MPS 9000 -SHRA BKN033CB BKN066 20/10 Q1005 NOSIG
Время наблюдения
2021-05-16T14:00:00Z
Температура C
20.0
Точка росы
10.0
Направление ветра
130
Скорость ветра (узлы)
12
Метео видимость
5.59
Явления погоды
-SHRA
Условия полета
VFR
Аэропорт подробнее: